Time;durP1;ratioP1;P1;durP2;ratioP2;P2;SDS_P1;SDS_P2;PMS_P1;PMS_P2;Temp;Humidity;BMP_temperature;BMP_pressure;BME280_temperature;BME280_humidity;BME280_pressure;Samples;Min_cycle;Max_cycle;Signal;HPM_P1;HPM_P2
2021/10/07 00:02:13;;;;;;;;;;;;;;;8.91;100.00;102223.22;5103418;28;19943;-50
2021/10/07 00:04:40;;;;;;;;;;;;;;;8.78;100.00;102243.78;5069852;28;20015;-51
2021/10/07 00:07:07;;;;;;;;;;;;;;;8.88;100.00;102244.31;5102946;28;19925;-48
2021/10/07 00:09:33;;;;;;;;;;;;;;;8.87;100.00;102246.06;5072637;28;19924;-47
2021/10/07 00:12:00;;;;;;;;;;;;;;;8.82;100.00;102249.78;5074003;28;19967;-46
2021/10/07 00:14:27;;;;;;;;;;;;;;;8.81;100.00;102248.94;5072177;28;19932;-47
2021/10/07 00:16:53;;;;;;;;;;;;;;;8.78;100.00;102255.16;5073545;28;20295;-52
2021/10/07 00:19:20;;;;;;;;;;;;;;;8.78;100.00;102251.63;5075434;28;19931;-48
2021/10/07 00:21:46;;;;;;;;;;;;;;;8.79;100.00;102258.63;5075206;28;20438;-50
2021/10/07 00:24:13;;;;;;;;;;;;;;;8.86;100.00;102257.50;5074923;28;19973;-50
2021/10/07 00:26:44;;;;;;;;;;;;;;;8.80;100.00;102255.94;5075133;28;19924;-48
2021/10/07 00:32:21;;;;;;;;;;;;;;;8.88;100.00;102268.78;5075340;28;20375;-48
2021/10/07 00:39:02;;;;;;;;;;;;;;;8.96;100.00;102277.25;5072551;28;19928;-47
2021/10/07 00:40:09;;;;;;;;;;;;;;;8.88;100.00;102276.66;5073849;28;19924;-46
2021/10/07 00:42:36;;;;;;;;;;;;;;;8.97;100.00;102283.34;5071056;28;20030;-49
2021/10/07 00:45:03;;;;;;;;;;;;;;;8.97;100.00;102278.09;5073340;28;19925;-48
2021/10/07 00:47:30;;;;;;;;;;;;;;;9.11;100.00;102285.50;5107409;28;19924;-48
2021/10/07 00:49:57;;;;;;;;;;;;;;;8.99;100.00;102278.91;5107401;28;20349;-47
2021/10/07 00:52:23;;;;;;;;;;;;;;;9.05;100.00;102283.94;5073462;28;19931;-49
2021/10/07 00:54:51;;;;;;;;;;;;;;;9.04;100.00;102282.22;5074902;28;20342;-45
2021/10/07 00:57:19;;;;;;;;;;;;;;;9.10;100.00;102286.41;5073300;28;19974;-47
2021/10/07 00:59:46;;;;;;;;;;;;;;;9.15;100.00;102287.09;5106972;28;19925;-46
2021/10/07 01:02:12;;;;;;;;;;;;;;;9.23;100.00;102292.91;5070394;28;19999;-47
2021/10/07 01:04:39;;;;;;;;;;;;;;;9.29;100.00;102292.69;5072543;28;20271;-47
2021/10/07 01:07:07;;;;;;;;;;;;;;;9.18;100.00;102289.59;5074265;28;20334;-46
2021/10/07 01:09:34;;;;;;;;;;;;;;;9.17;100.00;102290.50;5073817;28;19924;-47
2021/10/07 01:12:01;;;;;;;;;;;;;;;9.18;100.00;102291.38;5072834;28;19942;-48
2021/10/07 01:14:43;;;;;;;;;;;;;;;9.15;100.00;102294.97;5104031;28;20287;-48
2021/10/07 01:17:17;;;;;;;;;;;;;;;9.17;100.00;102301.00;5072040;28;19924;-48
2021/10/07 01:19:45;;;;;;;;;;;;;;;9.17;100.00;102300.16;5073046;28;20407;-45
2021/10/07 01:22:12;;;;;;;;;;;;;;;9.13;100.00;102302.03;5074023;28;19971;-48
2021/10/07 01:24:38;;;;;;;;;;;;;;;9.16;100.00;102309.78;5089774;28;19986;-50
2021/10/07 01:27:05;;;;;;;;;;;;;;;9.32;100.00;102302.22;5069568;28;19928;-47
2021/10/07 01:29:32;;;;;;;;;;;;;;;9.32;100.00;102304.00;5069034;28;19978;-48
2021/10/07 01:32:00;;;;;;;;;;;;;;;9.17;100.00;102295.75;5074368;28;19925;-48
2021/10/07 01:34:27;;;;;;;;;;;;;;;9.19;100.00;102306.19;5074060;28;19970;-48
2021/10/07 01:36:54;;;;;;;;;;;;;;;9.23;100.00;102307.78;5071857;28;19924;-48
2021/10/07 01:39:21;;;;;;;;;;;;;;;9.25;100.00;102308.59;5069559;28;20363;-50
2021/10/07 01:41:48;;;;;;;;;;;;;;;9.18;100.00;102301.88;5088097;28;19978;-50
2021/10/07 01:44:17;;;;;;;;;;;;;;;9.18;100.00;102313.22;5069940;28;19931;-50
2021/10/07 01:46:43;;;;;;;;;;;;;;;9.20;100.00;102316.63;5072465;28;19929;-50
2021/10/07 01:49:10;;;;;;;;;;;;;;;9.14;100.00;102314.25;5073595;28;19925;-47
2021/10/07 01:51:37;;;;;;;;;;;;;;;9.20;100.00;102318.41;5089122;28;19968;-47
2021/10/07 01:54:04;;;;;;;;;;;;;;;9.32;100.00;102317.13;5073375;28;20284;-48
2021/10/07 01:56:31;;;;;;;;;;;;;;;9.29;100.00;102320.72;5073591;28;20306;-50
2021/10/07 01:58:58;;;;;;;;;;;;;;;9.39;100.00;102331.72;5089241;28;20333;-51
2021/10/07 02:01:24;;;;;;;;;;;;;;;9.33;100.00;102329.34;5073500;28;19925;-52
2021/10/07 02:03:51;;;;;;;;;;;;;;;9.30;100.00;102333.78;5073336;28;19928;-51
2021/10/07 02:06:18;;;;;;;;;;;;;;;9.29;100.00;102328.59;5073632;28;19928;-46
2021/10/07 02:08:45;;;;;;;;;;;;;;;9.32;100.00;102327.63;5105336;28;19925;-59
2021/10/07 02:11:11;;;;;;;;;;;;;;;9.30;100.00;102327.69;5071525;28;20379;-58
2021/10/07 02:13:38;;;;;;;;;;;;;;;9.29;100.00;102328.59;5072812;28;19924;-58
2021/10/07 02:16:05;;;;;;;;;;;;;;;9.30;100.00;102325.06;5073082;28;19932;-57
2021/10/07 02:18:32;;;;;;;;;;;;;;;9.32;100.00;102328.47;5071563;28;20375;-57
2021/10/07 02:20:58;;;;;;;;;;;;;;;9.36;100.00;102332.69;5070679;28;19936;-58
2021/10/07 02:23:25;;;;;;;;;;;;;;;9.38;100.00;102325.63;5104792;28;20019;-58
2021/10/07 02:25:52;;;;;;;;;;;;;;;9.36;100.00;102331.84;5073131;28;19985;-45
2021/10/07 02:28:18;;;;;;;;;;;;;;;9.32;100.00;102332.88;5073087;28;19925;-45
2021/10/07 02:30:45;;;;;;;;;;;;;;;9.39;100.00;102339.63;5072975;28;19960;-45
2021/10/07 02:33:15;;;;;;;;;;;;;;;9.31;100.00;102347.75;5072643;28;20406;-46
2021/10/07 02:35:42;;;;;;;;;;;;;;;9.28;100.00;102343.50;5072742;28;20023;-44
2021/10/07 02:38:08;;;;;;;;;;;;;;;9.29;100.00;102350.44;5072655;28;19994;-45
2021/10/07 02:40:35;;;;;;;;;;;;;;;9.33;100.00;102350.34;5102306;28;19982;-45
2021/10/07 02:43:02;;;;;;;;;;;;;;;9.36;100.00;102350.22;5102222;28;20265;-48
2021/10/07 02:45:28;;;;;;;;;;;;;;;9.37;100.00;102358.06;5072640;28;19925;-46
2021/10/07 02:47:55;;;;;;;;;;;;;;;9.38;100.00;102359.78;5072680;28;19925;-45
2021/10/07 02:50:22;;;;;;;;;;;;;;;9.34;100.00;102358.16;5072381;28;20354;-48
2021/10/07 02:52:49;;;;;;;;;;;;;;;9.39;100.00;102356.22;5104639;28;20027;-48
2021/10/07 02:55:16;;;;;;;;;;;;;;;9.36;100.00;102366.84;5072548;28;19924;-51
2021/10/07 02:57:45;;;;;;;;;;;;;;;9.36;100.00;102360.75;5071525;28;20015;-46
2021/10/07 03:00:13;;;;;;;;;;;;;;;9.42;100.00;102363.13;5072672;28;20358;-49
2021/10/07 03:02:40;;;;;;;;;;;;;;;9.46;100.00;102365.59;5102731;28;20322;-49
2021/10/07 03:05:07;;;;;;;;;;;;;;;9.44;100.00;102363.94;5085692;28;20066;-49
2021/10/07 03:07:34;;;;;;;;;;;;;;;9.44;100.00;102369.19;5104402;28;20476;-48
2021/10/07 03:10:01;;;;;;;;;;;;;;;9.46;100.00;102376.09;5085844;28;20403;-51
2021/10/07 03:12:27;;;;;;;;;;;;;;;9.35;100.00;102375.63;5070251;28;19935;-48
2021/10/07 03:14:54;;;;;;;;;;;;;;;9.46;100.00;102384.00;5072426;28;19928;-44
2021/10/07 03:17:20;;;;;;;;;;;;;;;9.32;100.00;102386.22;5072409;28;20688;-46
2021/10/07 03:19:47;;;;;;;;;;;;;;;9.35;100.00;102387.91;5072406;28;20047;-47
2021/10/07 03:22:15;;;;;;;;;;;;;;;9.39;100.00;102387.72;5072342;28;19970;-46
2021/10/07 03:24:42;;;;;;;;;;;;;;;9.42;100.00;102386.75;5104413;28;19925;-50
2021/10/07 03:27:09;;;;;;;;;;;;;;;9.41;100.00;102385.06;5072513;28;20394;-46
2021/10/07 03:29:36;;;;;;;;;;;;;;;9.54;100.00;102391.56;5072406;28;20020;-48
2021/10/07 03:32:02;;;;;;;;;;;;;;;9.50;100.00;102395.22;5072504;28;19931;-51
2021/10/07 03:34:29;;;;;;;;;;;;;;;9.39;100.00;102400.00;5070798;28;19956;-49
2021/10/07 03:36:56;;;;;;;;;;;;;;;9.34;100.00;102412.44;5072330;28;20295;-49
2021/10/07 03:39:22;;;;;;;;;;;;;;;9.29;100.00;102421.31;5072260;28;20434;-49
2021/10/07 03:41:49;;;;;;;;;;;;;;;9.26;100.00;102413.56;5072414;28;20399;-51
2021/10/07 03:44:16;;;;;;;;;;;;;;;9.19;100.00;102422.56;5071579;28;19924;-48
2021/10/07 03:46:42;;;;;;;;;;;;;;;9.15;100.00;102426.22;5073722;28;20621;-46
2021/10/07 03:49:09;;;;;;;;;;;;;;;9.23;100.00;102429.44;5108237;28;19925;-50
2021/10/07 03:51:37;;;;;;;;;;;;;;;9.25;100.00;102437.25;5076083;28;20385;-51
2021/10/07 03:54:03;;;;;;;;;;;;;;;9.32;100.00;102436.13;5108457;28;19925;-53
2021/10/07 03:56:30;;;;;;;;;;;;;;;9.27;100.00;102425.78;5075885;28;20003;-51
2021/10/07 03:58:56;;;;;;;;;;;;;;;9.27;100.00;102436.28;5075752;28;19928;-48
2021/10/07 04:01:23;;;;;;;;;;;;;;;9.28;100.00;102442.38;5072694;28;19924;-46
2021/10/07 04:03:50;;;;;;;;;;;;;;;9.22;100.00;102445.25;5073103;28;19936;-45
2021/10/07 04:06:17;;;;;;;;;;;;;;;9.19;100.00;102445.31;5075786;28;20330;-48
2021/10/07 04:08:44;;;;;;;;;;;;;;;9.18;100.00;102448.88;5074470;28;19930;-46
2021/10/07 04:11:10;;;;;;;;;;;;;;;9.12;100.00;102457.78;5075557;28;19932;-47
2021/10/07 04:13:37;;;;;;;;;;;;;;;9.13;100.00;102460.38;5075618;28;19993;-47
2021/10/07 04:16:04;;;;;;;;;;;;;;;9.17;100.00;102465.53;5074785;28;20462;-47
2021/10/07 04:18:31;;;;;;;;;;;;;;;9.18;100.00;102468.09;5070691;28;19935;-47
2021/10/07 04:20:57;;;;;;;;;;;;;;;9.11;100.00;102479.72;5073982;28;19928;-50
2021/10/07 04:23:24;;;;;;;;;;;;;;;9.17;100.00;102476.88;5075253;28;19924;-48
2021/10/07 04:25:51;;;;;;;;;;;;;;;9.13;100.00;102477.88;5073317;28;19964;-50
2021/10/07 04:28:17;;;;;;;;;;;;;;;9.16;100.00;102480.41;5071701;28;19928;-48
2021/10/07 04:30:44;;;;;;;;;;;;;;;9.17;100.00;102483.91;5073940;28;19925;-45
2021/10/07 04:33:11;;;;;;;;;;;;;;;9.12;100.00;102482.28;5072974;28;19932;-50
2021/10/07 04:35:38;;;;;;;;;;;;;;;9.13;100.00;102485.75;5073658;28;20432;-50
2021/10/07 04:38:05;;;;;;;;;;;;;;;9.16;100.00;102490.06;5075246;28;20359;-49
2021/10/07 04:40:32;;;;;;;;;;;;;;;9.14;100.00;102487.47;5075189;28;20399;-50
2021/10/07 04:42:59;;;;;;;;;;;;;;;9.12;100.00;102497.16;5107172;28;20319;-51
2021/10/07 04:45:25;;;;;;;;;;;;;;;9.30;100.00;102488.69;5071618;28;19931;-51
2021/10/07 04:47:52;;;;;;;;;;;;;;;9.24;100.00;102488.91;5072959;28;19931;-47
2021/10/07 04:50:19;;;;;;;;;;;;;;;9.15;100.00;102489.22;5074923;28;20429;-48
2021/10/07 04:52:45;;;;;;;;;;;;;;;9.07;100.00;102493.84;5074896;28;19925;-49
2021/10/07 04:55:13;;;;;;;;;;;;;;;9.09;100.00;102492.91;5074000;28;19959;-51
2021/10/07 04:57:39;;;;;;;;;;;;;;;9.07;100.00;102494.69;5074668;28;19939;-47
2021/10/07 05:00:06;;;;;;;;;;;;;;;9.17;100.00;102500.50;5074587;28;19925;-45
2021/10/07 05:02:37;;;;;;;;;;;;;;;9.25;100.00;102487.13;5105847;28;19924;-52
2021/10/07 05:05:04;;;;;;;;;;;;;;;9.31;100.00;102492.16;5104421;28;19978;-51
2021/10/07 05:07:31;;;;;;;;;;;;;;;9.21;100.00;102496.88;5073560;28;19924;-51
2021/10/07 05:09:57;;;;;;;;;;;;;;;9.21;100.00;102503.91;5074621;28;20326;-48
2021/10/07 05:12:24;;;;;;;;;;;;;;;9.24;100.00;102504.66;5074393;28;19929;-47
2021/10/07 05:14:51;;;;;;;;;;;;;;;9.18;100.00;102504.84;5074428;28;19924;-51
2021/10/07 05:17:17;;;;;;;;;;;;;;;9.20;100.00;102504.78;5074312;28;19935;-49
2021/10/07 05:19:44;;;;;;;;;;;;;;;9.12;100.00;102511.16;5073068;28;19928;-51
2021/10/07 05:22:10;;;;;;;;;;;;;;;9.27;100.00;102514.19;5073887;28;19979;-49
2021/10/07 05:24:37;;;;;;;;;;;;;;;9.26;100.00;102517.72;5106383;28;19924;-49
2021/10/07 05:27:04;;;;;;;;;;;;;;;9.22;100.00;102521.38;5074017;28;20410;-50
2021/10/07 05:29:30;;;;;;;;;;;;;;;9.17;100.00;102529.38;5072948;28;19995;-52
2021/10/07 05:31:57;;;;;;;;;;;;;;;9.08;100.00;102530.53;5074299;28;19924;-51
2021/10/07 05:34:24;;;;;;;;;;;;;;;8.98;100.00;102531.72;5073841;28;19932;-52
2021/10/07 05:36:50;;;;;;;;;;;;;;;8.96;100.00;102536.19;5073848;28;20011;-50
2021/10/07 05:39:17;;;;;;;;;;;;;;;9.04;100.00;102544.66;5073821;28;19950;-52
2021/10/07 05:41:43;;;;;;;;;;;;;;;9.00;100.00;102536.94;5073619;28;19928;-46
2021/10/07 05:44:10;;;;;;;;;;;;;;;8.99;100.00;102543.09;5073518;28;19932;-59
2021/10/07 05:46:37;;;;;;;;;;;;;;;8.98;100.00;102544.00;5072184;28;20306;-59
2021/10/07 05:49:04;;;;;;;;;;;;;;;8.93;100.00;102552.88;5103425;28;20387;-60
2021/10/07 05:51:31;;;;;;;;;;;;;;;8.91;100.00;102545.97;5105001;28;19932;-59
2021/10/07 05:53:58;;;;;;;;;;;;;;;8.92;100.00;102550.31;5105258;28;19929;-58
2021/10/07 05:56:25;;;;;;;;;;;;;;;8.82;100.00;102551.47;5102278;28;19925;-58
2021/10/07 05:58:52;;;;;;;;;;;;;;;8.80;100.00;102551.53;5069316;28;19966;-57
2021/10/07 06:01:19;;;;;;;;;;;;;;;8.89;100.00;102563.50;5073693;28;19929;-58
2021/10/07 06:03:45;;;;;;;;;;;;;;;8.73;100.00;102563.13;5072336;28;19928;-57
2021/10/07 06:06:12;;;;;;;;;;;;;;;8.77;100.00;102560.34;5073101;28;20318;-58
2021/10/07 06:08:39;;;;;;;;;;;;;;;8.80;100.00;102568.13;5071880;28;20406;-58
2021/10/07 06:11:05;;;;;;;;;;;;;;;8.77;100.00;102564.75;5070464;28;19981;-58
2021/10/07 06:13:32;;;;;;;;;;;;;;;8.80;100.00;102575.16;5102645;28;19977;-58
2021/10/07 06:15:58;;;;;;;;;;;;;;;8.82;100.00;102581.22;5071933;28;19951;-58
2021/10/07 06:18:25;;;;;;;;;;;;;;;8.76;100.00;102587.47;5071991;28;19974;-58
2021/10/07 06:20:52;;;;;;;;;;;;;;;8.82;100.00;102585.59;5073107;28;19928;-58
2021/10/07 06:23:18;;;;;;;;;;;;;;;8.71;100.00;102591.16;5072918;28;20476;-58
2021/10/07 06:25:45;;;;;;;;;;;;;;;8.79;100.00;102594.41;5071775;28;19970;-58
2021/10/07 06:28:12;;;;;;;;;;;;;;;8.76;100.00;102591.88;5072978;28;19924;-58
2021/10/07 06:30:38;;;;;;;;;;;;;;;8.77;100.00;102588.38;5071808;28;20412;-58
2021/10/07 06:33:05;;;;;;;;;;;;;;;8.85;100.00;102591.63;5070429;28;19924;-58
2021/10/07 06:35:32;;;;;;;;;;;;;;;8.79;100.00;102603.16;5072154;28;19935;-58
2021/10/07 06:38:00;;;;;;;;;;;;;;;8.71;100.00;102609.50;5069707;28;20362;-58
2021/10/07 06:40:27;;;;;;;;;;;;;;;8.60;100.00;102608.06;5102695;28;20384;-58
2021/10/07 06:42:54;;;;;;;;;;;;;;;8.67;100.00;102607.88;5073005;28;19950;-58
2021/10/07 06:45:20;;;;;;;;;;;;;;;8.62;100.00;102611.50;5105120;28;19924;-58
2021/10/07 06:47:47;;;;;;;;;;;;;;;8.74;100.00;102617.28;5072786;28;19970;-57
2021/10/07 06:50:14;;;;;;;;;;;;;;;8.74;100.00;102614.66;5105124;28;19973;-58
2021/10/07 06:52:41;;;;;;;;;;;;;;;8.75;100.00;102606.78;5072754;28;20318;-58
2021/10/07 06:55:10;;;;;;;;;;;;;;;8.82;100.00;102609.19;5072927;28;19931;-58
2021/10/07 06:57:37;;;;;;;;;;;;;;;8.86;100.00;102619.56;5104751;28;19925;-58
2021/10/07 07:00:07;;;;;;;;;;;;;;;8.94;100.00;102627.19;5072716;28;20295;-57
2021/10/07 07:02:37;;;;;;;;;;;;;;;8.87;100.00;102620.44;5072902;28;20403;-58
2021/10/07 07:05:05;;;;;;;;;;;;;;;8.91;100.00;102616.81;5104865;28;19924;-57
2021/10/07 07:07:32;;;;;;;;;;;;;;;8.99;100.00;102624.47;5103698;28;19929;-58
2021/10/07 07:09:59;;;;;;;;;;;;;;;9.05;100.00;102630.38;5102215;28;19933;-58
2021/10/07 07:12:40;;;;;;;;;;;;;;;9.12;100.00;102633.66;5070255;28;19924;-58
2021/10/07 07:15:07;;;;;;;;;;;;;;;9.16;100.00;102637.06;5072683;28;19931;-58
2021/10/07 07:17:33;;;;;;;;;;;;;;;9.11;100.00;102640.69;5104356;28;19982;-57
2021/10/07 07:20:00;;;;;;;;;;;;;;;9.05;100.00;102640.88;5075400;28;19928;-57
2021/10/07 07:22:27;;;;;;;;;;;;;;;9.14;100.00;102647.59;5057953;28;19924;-57
2021/10/07 07:24:54;;;;;;;;;;;;;;;9.24;100.00;102645.56;5076012;28;19998;-58
2021/10/07 07:27:20;;;;;;;;;;;;;;;9.23;100.00;102647.34;5075878;28;19964;-58
2021/10/07 07:29:47;;;;;;;;;;;;;;;9.32;100.00;102638.28;5076076;28;19925;-59
2021/10/07 07:32:14;;;;;;;;;;;;;;;9.25;100.00;102645.50;5105862;28;20391;-58
2021/10/07 07:34:41;;;;;;;;;;;;;;;9.30;100.00;102655.88;5106919;28;19924;-57
2021/10/07 07:37:07;;;;;;;;;;;;;;;9.33;100.00;102657.56;5075051;28;19970;-47
2021/10/07 07:39:34;;;;;;;;;;;;;;;9.31;100.00;102660.19;5076337;28;20410;-46
2021/10/07 07:42:01;;;;;;;;;;;;;;;9.43;100.00;102666.84;5108733;28;19948;-46
2021/10/07 07:44:27;;;;;;;;;;;;;;;9.37;100.00;102673.16;5073059;28;19978;-49
2021/10/07 07:46:54;;;;;;;;;;;;;;;9.48;100.00;102664.94;5073963;28;19928;-50
2021/10/07 07:49:21;;;;;;;;;;;;;;;9.48;100.00;102664.94;5108211;28;19932;-49
2021/10/07 07:51:48;;;;;;;;;;;;;;;9.53;100.00;102660.41;5075720;28;20387;-47
2021/10/07 07:54:15;;;;;;;;;;;;;;;9.53;100.00;102664.78;5073865;28;19928;-50
2021/10/07 07:56:41;;;;;;;;;;;;;;;9.63;100.00;102664.44;5072562;28;20356;-45
2021/10/07 07:59:09;;;;;;;;;;;;;;;9.64;100.00;102666.16;5075045;28;19924;-46
2021/10/07 08:01:36;;;;;;;;;;;;;;;9.68;100.00;102671.31;5075916;28;19928;-49
2021/10/07 08:04:04;;;;;;;;;;;;;;;9.76;100.00;102678.06;5074890;28;19930;-49
2021/10/07 08:06:32;;;;;;;;;;;;;;;9.84;100.00;102677.78;5104947;28;19928;-50
2021/10/07 08:08:59;;;;;;;;;;;;;;;9.90;100.00;102682.84;5106514;28;19928;-57
2021/10/07 08:11:26;;;;;;;;;;;;;;;9.87;100.00;102685.59;5075599;28;20268;-56
2021/10/07 08:13:53;;;;;;;;;;;;;;;9.97;100.00;102686.16;5075642;28;20418;-57
2021/10/07 08:16:19;;;;;;;;;;;;;;;10.03;100.00;102688.56;5075432;28;19932;-59
2021/10/07 08:18:46;;;;;;;;;;;;;;;10.02;100.00;102692.13;5075602;28;19924;-57
2021/10/07 08:21:13;;;;;;;;;;;;;;;10.09;100.00;102700.63;5073837;28;19952;-58
2021/10/07 08:23:39;;;;;;;;;;;;;;;10.19;100.00;102695.94;5072199;28;20347;-56
2021/10/07 08:26:06;;;;;;;;;;;;;;;10.26;100.00;102695.66;5074763;28;19929;-57
2021/10/07 08:28:33;;;;;;;;;;;;;;;10.37;100.00;102694.47;5075231;28;19925;-57
2021/10/07 08:30:59;;;;;;;;;;;;;;;10.43;100.00;102687.22;5073802;28;19981;-58
2021/10/07 08:33:26;;;;;;;;;;;;;;;10.47;100.00;102685.34;5074972;28;19924;-57
2021/10/07 08:35:53;;;;;;;;;;;;;;;10.35;100.00;102699.78;5075357;28;20560;-57
2021/10/07 08:38:19;;;;;;;;;;;;;;;10.56;100.00;102686.78;5107630;28;19928;-58
2021/10/07 08:40:46;;;;;;;;;;;;;;;10.68;100.00;102701.28;5075254;28;19986;-57
2021/10/07 08:43:12;;;;;;;;;;;;;;;10.74;100.00;102701.91;5075208;28;19924;-58
2021/10/07 08:45:39;;;;;;;;;;;;;;;10.79;100.00;102704.38;5074840;28;19932;-58
2021/10/07 08:48:08;;;;;;;;;;;;;;;10.93;100.00;102714.41;5073530;28;19924;-57
2021/10/07 08:50:35;;;;;;;;;;;;;;;10.98;100.00;102715.94;5073716;28;19925;-58
2021/10/07 08:53:01;;;;;;;;;;;;;;;11.01;100.00;102714.13;5075162;28;19924;-58
2021/10/07 08:55:28;;;;;;;;;;;;;;;11.01;100.00;102719.38;5074208;28;20026;-57
2021/10/07 08:57:55;;;;;;;;;;;;;;;11.03;100.00;102715.78;5074126;28;19977;-57
2021/10/07 09:00:22;;;;;;;;;;;;;;;11.13;100.00;102718.94;5106589;28;19974;-57
2021/10/07 09:02:48;;;;;;;;;;;;;;;11.17;100.00;102723.16;5075005;28;20271;-51
2021/10/07 09:05:17;;;;;;;;;;;;;;;11.20;100.00;102715.13;5107262;28;19931;-57
2021/10/07 09:07:56;;;;;;;;;;;;;;;11.30;100.00;102719.16;5071543;28;19928;-57
2021/10/07 09:10:39;;;;;;;;;;;;;;;11.38;100.00;102713.56;5072641;28;19974;-52
2021/10/07 09:13:11;;;;;;;;;;;;;;;11.46;100.00;102718.53;5106743;28;19925;-57
2021/10/07 09:15:56;;;;;;;;;;;;;;;11.56;100.00;102717.28;5074661;28;19925;-51
2021/10/07 09:18:24;;;;;;;;;;;;;;;11.63;99.70;102716.09;5070043;28;19928;-48
2021/10/07 09:20:52;;;;;;;;;;;;;;;11.69;100.00;102714.16;5072335;28;19926;-50
2021/10/07 09:23:20;;;;;;;;;;;;;;;11.70;100.00;102714.09;5074398;28;19968;-50
2021/10/07 09:25:53;;;;;;;;;;;;;;;11.77;100.00;102719.97;5074510;28;19928;-50
2021/10/07 09:28:20;;;;;;;;;;;;;;;11.87;99.18;102723.09;5074143;28;20357;-48
2021/10/07 09:30:52;;;;;;;;;;;;;;;11.80;99.77;102719.84;5106750;28;19970;-51
2021/10/07 09:33:26;;;;;;;;;;;;;;;11.71;99.85;102709.66;5073034;28;20331;-48
2021/10/07 09:36:11;;;;;;;;;;;;;;;11.76;99.49;102718.25;5074153;28;19947;-49
2021/10/07 09:38:38;;;;;;;;;;;;;;;11.88;100.00;102719.53;5106497;28;19950;-48
2021/10/07 09:41:11;;;;;;;;;;;;;;;11.86;99.06;102721.38;5073671;28;19928;-49
2021/10/07 09:43:56;;;;;;;;;;;;;;;11.99;99.28;102722.63;5072445;28;19926;-48
2021/10/07 09:46:42;;;;;;;;;;;;;;;11.90;99.83;102726.47;5070975;28;19924;-46
2021/10/07 09:49:10;;;;;;;;;;;;;;;11.96;99.83;102728.88;5072803;28;20018;-45
2021/10/07 09:51:38;;;;;;;;;;;;;;;12.05;99.50;102724.97;5105850;28;19924;-56
2021/10/07 09:54:04;;;;;;;;;;;;;;;12.10;98.07;102730.09;5073684;28;19970;-56
2021/10/07 09:56:31;;;;;;;;;;;;;;;12.08;97.66;102726.63;5088961;28;19926;-56
2021/10/07 09:59:04;;;;;;;;;;;;;;;12.14;98.83;102729.88;5073528;28;19924;-57
2021/10/07 10:01:31;;;;;;;;;;;;;;;12.08;98.94;102735.44;5073618;28;19925;-57
2021/10/07 10:03:58;;;;;;;;;;;;;;;12.16;98.93;102732.44;5103438;28;20018;-57
2021/10/07 10:06:25;;;;;;;;;;;;;;;12.23;98.98;102738.31;5069277;28;19932;-58
2021/10/07 10:08:51;;;;;;;;;;;;;;;12.23;97.86;102741.84;5105820;28;20375;-58
2021/10/07 10:11:20;;;;;;;;;;;;;;;12.12;96.85;102749.31;5073267;28;19925;-58
2021/10/07 10:13:47;;;;;;;;;;;;;;;12.22;96.95;102748.03;5073013;28;19925;-58
2021/10/07 10:16:17;;;;;;;;;;;;;;;12.28;98.61;102750.41;5072482;28;20047;-58
2021/10/07 10:18:45;;;;;;;;;;;;;;;12.33;96.81;102752.84;5087944;28;19970;-57
2021/10/07 10:21:14;;;;;;;;;;;;;;;12.34;96.31;102751.94;5088554;28;19928;-57
2021/10/07 10:23:43;;;;;;;;;;;;;;;12.41;97.72;102753.38;5104346;28;20303;-57
2021/10/07 10:26:13;;;;;;;;;;;;;;;12.54;96.88;102758.97;5073253;28;19925;-56
2021/10/07 10:28:46;;;;;;;;;;;;;;;12.61;96.88;102760.47;5103018;28;20367;-57
2021/10/07 10:31:15;;;;;;;;;;;;;;;12.64;95.61;102759.47;5069982;28;19924;-56
2021/10/07 10:33:45;;;;;;;;;;;;;;;12.70;96.55;102758.34;5105049;28;19924;-57
2021/10/07 10:36:24;;;;;;;;;;;;;;;12.70;95.24;102764.47;5073048;28;19928;-57
2021/10/07 10:39:03;;;;;;;;;;;;;;;12.54;95.69;102772.19;5073075;28;20342;-57
2021/10/07 10:42:08;;;;;;;;;;;;;;;12.64;92.47;102776.16;5072871;28;19928;-57
2021/10/07 10:44:46;;;;;;;;;;;;;;;12.62;93.93;102778.00;5027045;28;19956;-52
2021/10/07 10:47:13;;;;;;;;;;;;;;;12.68;94.17;102777.75;5029571;28;19937;-58
2021/10/07 10:49:51;;;;;;;;;;;;;;;12.65;93.70;102777.88;5054177;28;19935;-49
2021/10/07 10:52:18;;;;;;;;;;;;;;;12.71;94.38;102782.03;5072895;28;20352;-52
2021/10/07 10:54:46;;;;;;;;;;;;;;;12.71;92.15;102782.03;5072493;28;19970;-48
2021/10/07 10:57:27;;;;;;;;;;;;;;;12.62;93.50;102787.69;5105032;28;19928;-51
2021/10/07 11:00:07;;;;;;;;;;;;;;;12.71;91.98;102791.72;5072286;28;19928;-49
2021/10/07 11:02:34;;;;;;;;;;;;;;;12.83;94.14;102791.22;5069723;28;19925;-48
2021/10/07 11:05:10;;;;;;;;;;;;;;;12.92;92.84;102789.94;5070385;28;19924;-46
2021/10/07 11:07:37;;;;;;;;;;;;;;;12.86;92.84;102798.97;5072543;28;19925;-57
2021/10/07 11:10:05;;;;;;;;;;;;;;;12.97;91.05;102804.63;5104695;28;19967;-58
2021/10/07 11:12:33;;;;;;;;;;;;;;;13.06;90.15;102800.75;5072347;28;19925;-58
2021/10/07 11:14:59;;;;;;;;;;;;;;;13.00;90.12;102803.66;5072705;28;19935;-56
2021/10/07 11:17:29;;;;;;;;;;;;;;;13.04;90.34;102801.75;5072421;28;19924;-57
2021/10/07 11:19:55;;;;;;;;;;;;;;;13.08;91.58;102805.97;5071391;28;19925;-57
2021/10/07 11:22:23;;;;;;;;;;;;;;;13.05;89.46;102806.94;5068062;28;19977;-56
2021/10/07 11:24:50;;;;;;;;;;;;;;;13.14;91.37;102800.38;5071455;28;20397;-56
2021/10/07 11:27:30;;;;;;;;;;;;;;;13.07;92.69;102812.16;5072453;28;20466;-57
2021/10/07 11:29:57;;;;;;;;;;;;;;;13.21;91.12;102799.19;5072352;28;19951;-57
2021/10/07 11:32:23;;;;;;;;;;;;;;;13.13;91.48;102803.94;5072626;28;19989;-57
2021/10/07 11:34:57;;;;;;;;;;;;;;;13.13;91.38;102798.66;5072406;28;19924;-57
2021/10/07 11:37:25;;;;;;;;;;;;;;;13.21;90.80;102800.97;5072543;28;19974;-57
2021/10/07 11:40:11;;;;;;;;;;;;;;;13.11;90.16;102804.03;5085503;28;19932;-56
2021/10/07 11:42:38;;;;;;;;;;;;;;;13.14;90.30;102803.03;5068745;28;19925;-56
2021/10/07 11:45:16;;;;;;;;;;;;;;;13.25;89.98;102808.72;5072294;28;19925;-57
2021/10/07 11:47:43;;;;;;;;;;;;;;;13.31;88.90;102797.84;5072290;28;20906;-57
2021/10/07 11:50:13;;;;;;;;;;;;;;;13.23;90.00;102794.69;5070754;28;19974;-57
2021/10/07 11:52:39;;;;;;;;;;;;;;;13.22;89.30;102797.41;5069439;28;20033;-57
2021/10/07 11:55:06;;;;;;;;;;;;;;;13.13;88.67;102798.66;5072409;28;19977;-56
2021/10/07 11:57:33;;;;;;;;;;;;;;;13.18;88.60;102801.97;5072188;28;19978;-58
2021/10/07 12:00:02;;;;;;;;;;;;;;;13.26;88.89;102797.19;5072164;28;19931;-58
2021/10/07 12:02:30;;;;;;;;;;;;;;;13.35;89.21;102796.81;5104531;28;19956;-56
2021/10/07 12:05:15;;;;;;;;;;;;;;;13.44;87.15;102797.31;5073705;28;19924;-56
2021/10/07 12:07:42;;;;;;;;;;;;;;;13.47;88.06;102794.50;5075733;28;19928;-57
2021/10/07 12:10:09;;;;;;;;;;;;;;;13.43;87.20;102800.88;5074510;28;20390;-57
2021/10/07 12:12:35;;;;;;;;;;;;;;;13.47;86.86;102789.22;5107900;28;19924;-59
2021/10/07 12:15:02;;;;;;;;;;;;;;;13.43;87.38;102793.81;5107904;28;19932;-58
2021/10/07 12:17:29;;;;;;;;;;;;;;;13.48;88.62;102790.94;5075545;28;19932;-57
2021/10/07 12:19:57;;;;;;;;;;;;;;;13.62;86.14;102793.81;5075055;28;19929;-57
2021/10/07 12:22:26;;;;;;;;;;;;;;;13.55;87.99;102797.66;5074935;28;19977;-58
2021/10/07 12:24:57;;;;;;;;;;;;;;;13.60;87.12;102793.00;5075514;28;19924;-57
2021/10/07 12:27:30;;;;;;;;;;;;;;;13.75;87.64;102791.44;5075372;28;19924;-56
2021/10/07 12:30:02;;;;;;;;;;;;;;;13.89;85.62;102790.75;5075352;28;19924;-57
2021/10/07 12:32:29;;;;;;;;;;;;;;;13.91;84.81;102796.84;5072459;28;19975;-57
2021/10/07 12:34:56;;;;;;;;;;;;;;;13.92;84.21;102795.94;5072877;28;20344;-57
2021/10/07 12:37:26;;;;;;;;;;;;;;;13.96;83.51;102784.25;5075346;28;20046;-57
2021/10/07 12:39:53;;;;;;;;;;;;;;;14.08;85.68;102789.88;5075230;28;19931;-49
2021/10/07 12:42:20;;;;;;;;;;;;;;;14.22;83.28;102797.13;5073840;28;19974;-50
2021/10/07 12:44:52;;;;;;;;;;;;;;;14.29;83.61;102791.47;5071571;28;19990;-50
2021/10/07 12:47:27;;;;;;;;;;;;;;;14.22;81.95;102795.34;5072889;28;19935;-45